Details From LOWW - Wien Schwechat
To LCLK - Larnaca
Flight Number -
Tags Decoded
Created
Modified
Stats Distance 1,147 nm / 2,124 km
Max Altitude 0 ft / 0 m
Waypoints 19
Social Downloads 7
Likes 0
Share VATSIM

Download

Looking for another format? Having issues loading an existing format? Contact us
Advertisement - Login to hide

Notes

Decoded

Route

LOWW ABLOM LEDRI ALAMU PUSTA KEROP TISAK NISVA IDILO BELGI CNK SUDES DUGLA NILER LAMSA TOMBI DASNI DAROS LCLK

ID Type Via Altitude Latitude Longitude Leg Dist Tot Dist Heading (true) Name
O LOWW APT - 0 ft / 0 m 48.11978˚ 16.57818˚ - 0 nm - -
ABLOM FIX - 0 ft / 0 m 48.06757˚ 17.08770˚ 20 nm 20 nm 99° / 99° -
LEDRI FIX - 0 ft / 0 m 48.09089˚ 17.18285˚ 4 nm 24 nm 70° / 70° -
ALAMU FIX - 0 ft / 0 m 47.73694˚ 18.33000˚ 50 nm 75 nm 114° / 115° -
PUSTA FIX - 0 ft / 0 m 47.15222˚ 18.74232˚ 38 nm 114 nm 154° / 155° -
KEROP FIX - 0 ft / 0 m 46.18431˚ 19.69656˚ 70 nm 184 nm 146° / 146° -
TISAK FIX - 0 ft / 0 m 45.42206˚ 20.22731˚ 50 nm 235 nm 154° / 154° -
NISVA FIX - 0 ft / 0 m 42.97278˚ 22.79750˚ 184 nm 419 nm 142° / 144° -
IDILO FIX - 0 ft / 0 m 40.79056˚ 25.43944˚ 176 nm 596 nm 137° / 139° -
BELGI FIX - 0 ft / 0 m 40.50000˚ 25.88333˚ 26 nm 622 nm 131° / 131° -
CNK VOR - 0 ft / 0 m 40.13630˚ 26.42797˚ 33 nm 655 nm 131° / 131° CANAKKALE VOR-DME
SUDES FIX - 0 ft / 0 m 39.76944˚ 26.89333˚ 30 nm 686 nm 136° / 136° -
DUGLA FIX - 0 ft / 0 m 39.49889˚ 27.22444˚ 22 nm 708 nm 137° / 137° -
NILER FIX - 0 ft / 0 m 39.08389˚ 27.86972˚ 38 nm 747 nm 130° / 130° -
LAMSA FIX - 0 ft / 0 m 37.11083˚ 29.92278˚ 153 nm 901 nm 140° / 141° -
TOMBI FIX - 0 ft / 0 m 36.04056˚ 30.82444˚ 77 nm 978 nm 146° / 146° -
DASNI FIX - 0 ft / 0 m 35.61667˚ 30.85000˚ 25 nm 1004 nm 177° / 177° -
DAROS FIX - 0 ft / 0 m 35.01167˚ 33.14833˚ 118 nm 1122 nm 107° / 109° -
O LCLK APT - 0 ft / 0 m 34.86568˚ 33.61326˚ 24 nm 1147 nm 111° / 111° -

Altitude Profile

Advertisement - Login to hide

Weather


0- 5 10 15 20 25 30 35+ Temperature / ° C

Clouds and Precipitation
Forecast for 2017-12-13 12:00 UTC. Updated 5 minutes ago

Ground ~20,000 ft ~40,000 ft Winds

LOWW

Details ICAO LOWW (VIE)
Name Wien Schwechat
Region Austria
Timezone Europe/Vienna (UTC+1.0)
Stats Elevation 600 ft / 183 m (AMSL)
Location 48.110068° 16.569637°
Runways 2
Magnetic Variation 4.256° E

METAR

LOWW 131050Z 30008KT 260V320 9999 FEW050 SCT110 05/M02 Q1019 NOSIG

Decode

TAF

TAF LOWW 130515Z 1306/1412 30007KT CAVOK TX07/1412Z TN01/1405Z BECMG 1312/1314 15007KT BECMG 1318/1320 16012KT BECMG 1409/1411 29015G25KT

Decode

Departure Runways

ID Width Length Bearing (true) Bearing (mag) Surface Threshold Offset Overrun Length
11 148 ft / 45 m 11,457 ft / 3,492 m 115.99° 111.73° Asphalt 0 ft / 0 m 0 ft / 0 m
16 148 ft / 45 m 11,811 ft / 3,600 m 164.23° 159.97° Asphalt 0 ft / 0 m 33 ft / 10 m
29 148 ft / 45 m 11,457 ft / 3,492 m 296.03° 291.77° Asphalt 0 ft / 0 m 0 ft / 0 m
34 148 ft / 45 m 11,811 ft / 3,600 m 344.24° 339.98° Asphalt 0 ft / 0 m 0 ft / 0 m

LCLK

Details ICAO LCLK (LCA)
Name Larnaca
Region Cyprus
Timezone Asia/Nicosia (UTC+2.0)
Stats Elevation 8 ft / 2 m (AMSL)
Location 34.875115° 33.624832°
Runways 1
Magnetic Variation 4.990° E

METAR

LCLK 131100Z 33013KT 9999 FEW035 22/10 Q1016 NOSIG

Decode

TAF

TAF LCLK 130530Z 1306/1406 32009KT 9999 FEW030= TAF LCPH 130530Z 1306/1406 03006KT 9999 FEW030 BECMG 1306/1309 30015KT BECMG 1316/1320 01007KT

Decode

Destination Runways

ID Width Length Bearing (true) Bearing (mag) Surface Threshold Offset Overrun Length
04 148 ft / 45 m 9,771 ft / 2,978 m 45.15° 40.16° Asphalt 0 ft / 0 m 210 ft / 64 m
22 148 ft / 45 m 9,771 ft / 2,978 m 225.17° 220.18° Asphalt 575 ft / 175 m 0 ft / 0 m

Approach Navaids

Runway Type Ident Frequency Range Bearing (true) Bearing (mag) Slope Elevation
22 Localiser ILC 110.30 MHz 18 nm / 33 km 225.17° 220.18° - 8 ft / 2 m (AMSL)
22 Glidescope ILC 110.30 MHz 10 nm / 19 km 225.16° 220.17° 2.75° 24 ft / 7 m (AMSL)
22 DME ILC 110.30 MHz 18 nm / 33 km - - - 20 ft / 6 m (AMSL)

Popular Alternatives